sensor_id;sensor_type;location;lat;lon;timestamp;temperature;humidity
15107;DHT22;7654;45.308;-75.096;2024-03-22T00:01:34;-5.10;90.60
15107;DHT22;7654;45.308;-75.096;2024-03-22T00:04:04;-5.10;91.20
15107;DHT22;7654;45.308;-75.096;2024-03-22T00:06:32;-5.10;91.60
15107;DHT22;7654;45.308;-75.096;2024-03-22T00:09:03;-5.20;90.70
15107;DHT22;7654;45.308;-75.096;2024-03-22T00:11:32;-5.20;90.70
15107;DHT22;7654;45.308;-75.096;2024-03-22T00:14:06;-5.20;90.70
15107;DHT22;7654;45.308;-75.096;2024-03-22T00:16:34;-5.20;90.70
15107;DHT22;7654;45.308;-75.096;2024-03-22T00:19:05;-5.30;91.50
15107;DHT22;7654;45.308;-75.096;2024-03-22T00:21:35;-5.30;90.60
15107;DHT22;7654;45.308;-75.096;2024-03-22T00:24:08;-5.30;90.30
15107;DHT22;7654;45.308;-75.096;2024-03-22T00:26:38;-5.20;90.40
15107;DHT22;7654;45.308;-75.096;2024-03-22T00:29:09;-5.30;90.30
15107;DHT22;7654;45.308;-75.096;2024-03-22T00:31:38;-5.30;91.00
15107;DHT22;7654;45.308;-75.096;2024-03-22T00:34:08;-5.30;91.10
15107;DHT22;7654;45.308;-75.096;2024-03-22T00:36:36;-5.40;90.70
15107;DHT22;7654;45.308;-75.096;2024-03-22T00:39:06;-5.50;90.90
15107;DHT22;7654;45.308;-75.096;2024-03-22T00:41:35;-5.50;90.80
15107;DHT22;7654;45.308;-75.096;2024-03-22T00:44:04;-5.50;90.90
15107;DHT22;7654;45.308;-75.096;2024-03-22T00:46:34;-5.50;90.60
15107;DHT22;7654;45.308;-75.096;2024-03-22T00:49:05;-5.50;90.10
15107;DHT22;7654;45.308;-75.096;2024-03-22T00:51:33;-5.40;90.90
15107;DHT22;7654;45.308;-75.096;2024-03-22T00:54:03;-5.50;91.40
15107;DHT22;7654;45.308;-75.096;2024-03-22T00:56:32;-5.60;90.80
15107;DHT22;7654;45.308;-75.096;2024-03-22T00:59:01;-5.60;91.30
15107;DHT22;7654;45.308;-75.096;2024-03-22T01:01:33;-5.60;91.40
15107;DHT22;7654;45.308;-75.096;2024-03-22T01:04:04;-5.60;90.80
15107;DHT22;7654;45.308;-75.096;2024-03-22T01:06:32;-5.70;90.90
15107;DHT22;7654;45.308;-75.096;2024-03-22T01:09:02;-5.70;91.40
15107;DHT22;7654;45.308;-75.096;2024-03-22T01:11:32;-5.80;91.10
15107;DHT22;7654;45.308;-75.096;2024-03-22T01:14:02;-5.80;91.20
15107;DHT22;7654;45.308;-75.096;2024-03-22T01:16:33;-5.80;90.50
15107;DHT22;7654;45.308;-75.096;2024-03-22T01:19:03;-5.80;90.10
15107;DHT22;7654;45.308;-75.096;2024-03-22T01:21:31;-5.80;90.10
15107;DHT22;7654;45.308;-75.096;2024-03-22T01:24:03;-5.90;90.60
15107;DHT22;7654;45.308;-75.096;2024-03-22T01:26:35;-5.90;90.60
15107;DHT22;7654;45.308;-75.096;2024-03-22T01:29:06;-5.90;90.00
15107;DHT22;7654;45.308;-75.096;2024-03-22T01:31:37;-5.90;90.00
15107;DHT22;7654;45.308;-75.096;2024-03-22T01:34:07;-5.90;89.30
15107;DHT22;7654;45.308;-75.096;2024-03-22T01:36:36;-5.90;89.80
15107;DHT22;7654;45.308;-75.096;2024-03-22T01:39:06;-5.90;88.90
15107;DHT22;7654;45.308;-75.096;2024-03-22T01:41:34;-6.00;88.80
15107;DHT22;7654;45.308;-75.096;2024-03-22T01:44:03;-6.00;89.40
15107;DHT22;7654;45.308;-75.096;2024-03-22T01:46:32;-6.10;89.80
15107;DHT22;7654;45.308;-75.096;2024-03-22T01:49:03;-6.20;89.90
15107;DHT22;7654;45.308;-75.096;2024-03-22T01:51:32;-6.20;88.30
15107;DHT22;7654;45.308;-75.096;2024-03-22T01:54:02;-6.20;89.00
15107;DHT22;7654;45.308;-75.096;2024-03-22T01:56:32;-6.20;88.50
15107;DHT22;7654;45.308;-75.096;2024-03-22T01:59:02;-6.20;88.00
15107;DHT22;7654;45.308;-75.096;2024-03-22T02:01:30;-6.20;89.00
15107;DHT22;7654;45.308;-75.096;2024-03-22T02:03:59;-6.30;89.40
15107;DHT22;7654;45.308;-75.096;2024-03-22T02:06:29;-6.40;89.00
15107;DHT22;7654;45.308;-75.096;2024-03-22T02:08:59;-6.40;88.40
15107;DHT22;7654;45.308;-75.096;2024-03-22T02:11:26;-6.40;88.50
15107;DHT22;7654;45.308;-75.096;2024-03-22T02:13:56;-6.50;89.20
15107;DHT22;7654;45.308;-75.096;2024-03-22T02:16:24;-6.60;87.50
15107;DHT22;7654;45.308;-75.096;2024-03-22T02:18:54;-6.50;87.50
15107;DHT22;7654;45.308;-75.096;2024-03-22T02:21:23;-6.50;87.20
15107;DHT22;7654;45.308;-75.096;2024-03-22T02:23:53;-6.50;87.00
15107;DHT22;7654;45.308;-75.096;2024-03-22T02:26:21;-6.60;88.20
15107;DHT22;7654;45.308;-75.096;2024-03-22T02:28:50;-6.60;88.50
15107;DHT22;7654;45.308;-75.096;2024-03-22T02:31:18;-6.70;88.10
15107;DHT22;7654;45.308;-75.096;2024-03-22T02:33:47;-6.80;88.90
15107;DHT22;7654;45.308;-75.096;2024-03-22T02:36:20;-6.90;89.50
15107;DHT22;7654;45.308;-75.096;2024-03-22T02:38:49;-6.90;89.60
15107;DHT22;7654;45.308;-75.096;2024-03-22T02:41:19;-7.00;90.10
15107;DHT22;7654;45.308;-75.096;2024-03-22T02:43:47;-7.00;89.20
15107;DHT22;7654;45.308;-75.096;2024-03-22T02:46:15;-7.00;89.60
15107;DHT22;7654;45.308;-75.096;2024-03-22T02:48:44;-7.00;88.00
15107;DHT22;7654;45.308;-75.096;2024-03-22T02:51:11;-7.00;88.70
15107;DHT22;7654;45.308;-75.096;2024-03-22T02:53:40;-7.00;88.10
15107;DHT22;7654;45.308;-75.096;2024-03-22T02:56:08;-7.00;87.70
15107;DHT22;7654;45.308;-75.096;2024-03-22T02:58:39;-7.00;86.60
15107;DHT22;7654;45.308;-75.096;2024-03-22T03:01:07;-7.00;86.50
15107;DHT22;7654;45.308;-75.096;2024-03-22T03:03:36;-7.00;86.20
15107;DHT22;7654;45.308;-75.096;2024-03-22T03:06:04;-6.90;87.30
15107;DHT22;7654;45.308;-75.096;2024-03-22T03:08:33;-6.90;87.60
15107;DHT22;7654;45.308;-75.096;2024-03-22T03:11:01;-7.00;87.40
15107;DHT22;7654;45.308;-75.096;2024-03-22T03:13:30;-7.10;87.70
15107;DHT22;7654;45.308;-75.096;2024-03-22T03:16:00;-7.10;88.20
15107;DHT22;7654;45.308;-75.096;2024-03-22T03:18:28;-7.20;87.50
15107;DHT22;7654;45.308;-75.096;2024-03-22T03:20:56;-7.30;89.10
15107;DHT22;7654;45.308;-75.096;2024-03-22T03:23:26;-7.40;89.30
15107;DHT22;7654;45.308;-75.096;2024-03-22T03:25:53;-7.40;89.60
15107;DHT22;7654;45.308;-75.096;2024-03-22T03:28:22;-7.50;90.00
15107;DHT22;7654;45.308;-75.096;2024-03-22T03:30:52;-7.50;90.00
15107;DHT22;7654;45.308;-75.096;2024-03-22T03:33:23;-7.60;90.00
15107;DHT22;7654;45.308;-75.096;2024-03-22T03:35:50;-7.50;88.70
15107;DHT22;7654;45.308;-75.096;2024-03-22T03:38:19;-7.50;89.10
15107;DHT22;7654;45.308;-75.096;2024-03-22T03:40:48;-7.50;87.90
15107;DHT22;7654;45.308;-75.096;2024-03-22T03:43:18;-7.40;86.60
15107;DHT22;7654;45.308;-75.096;2024-03-22T03:45:45;-7.40;87.40
15107;DHT22;7654;45.308;-75.096;2024-03-22T03:48:14;-7.50;87.40
15107;DHT22;7654;45.308;-75.096;2024-03-22T03:50:52;-7.50;86.90
15107;DHT22;7654;45.308;-75.096;2024-03-22T03:53:21;-7.50;86.50
15107;DHT22;7654;45.308;-75.096;2024-03-22T03:55:49;-7.50;85.70
15107;DHT22;7654;45.308;-75.096;2024-03-22T03:58:18;-7.50;86.90
15107;DHT22;7654;45.308;-75.096;2024-03-22T04:00:46;-7.60;86.30
15107;DHT22;7654;45.308;-75.096;2024-03-22T04:03:15;-7.60;86.40
15107;DHT22;7654;45.308;-75.096;2024-03-22T04:05:44;-7.60;85.90
15107;DHT22;7654;45.308;-75.096;2024-03-22T04:08:13;-7.60;85.80
15107;DHT22;7654;45.308;-75.096;2024-03-22T04:10:41;-7.60;87.20
15107;DHT22;7654;45.308;-75.096;2024-03-22T04:13:10;-7.70;87.20
15107;DHT22;7654;45.308;-75.096;2024-03-22T04:15:38;-7.70;87.40
15107;DHT22;7654;45.308;-75.096;2024-03-22T04:18:07;-7.80;88.00
15107;DHT22;7654;45.308;-75.096;2024-03-22T04:20:34;-7.80;88.50
15107;DHT22;7654;45.308;-75.096;2024-03-22T04:23:05;-7.90;88.80
15107;DHT22;7654;45.308;-75.096;2024-03-22T04:25:32;-8.00;89.30
15107;DHT22;7654;45.308;-75.096;2024-03-22T04:28:01;-8.10;90.20
15107;DHT22;7654;45.308;-75.096;2024-03-22T04:30:29;-8.20;90.10
15107;DHT22;7654;45.308;-75.096;2024-03-22T04:32:58;-8.20;90.60
15107;DHT22;7654;45.308;-75.096;2024-03-22T04:35:25;-8.30;90.60
15107;DHT22;7654;45.308;-75.096;2024-03-22T04:37:54;-8.30;90.30
15107;DHT22;7654;45.308;-75.096;2024-03-22T04:40:25;-8.30;90.30
15107;DHT22;7654;45.308;-75.096;2024-03-22T04:42:54;-8.40;90.70
15107;DHT22;7654;45.308;-75.096;2024-03-22T04:45:23;-8.40;90.80
15107;DHT22;7654;45.308;-75.096;2024-03-22T04:47:51;-8.40;90.80
15107;DHT22;7654;45.308;-75.096;2024-03-22T04:50:20;-8.40;90.80
15107;DHT22;7654;45.308;-75.096;2024-03-22T04:52:48;-8.50;91.10
15107;DHT22;7654;45.308;-75.096;2024-03-22T04:55:16;-8.50;91.10
15107;DHT22;7654;45.308;-75.096;2024-03-22T04:57:46;-8.40;91.10
15107;DHT22;7654;45.308;-75.096;2024-03-22T05:00:16;-8.40;91.20
15107;DHT22;7654;45.308;-75.096;2024-03-22T05:02:43;-8.40;90.90
15107;DHT22;7654;45.308;-75.096;2024-03-22T05:05:12;-8.40;91.00
15107;DHT22;7654;45.308;-75.096;2024-03-22T05:07:40;-8.40;90.70
15107;DHT22;7654;45.308;-75.096;2024-03-22T05:10:09;-8.50;90.90
15107;DHT22;7654;45.308;-75.096;2024-03-22T05:12:38;-8.50;91.30
15107;DHT22;7654;45.308;-75.096;2024-03-22T05:15:09;-8.50;91.40
15107;DHT22;7654;45.308;-75.096;2024-03-22T05:17:37;-8.60;91.20
15107;DHT22;7654;45.308;-75.096;2024-03-22T05:20:07;-8.60;91.40
15107;DHT22;7654;45.308;-75.096;2024-03-22T05:22:37;-8.70;91.50
15107;DHT22;7654;45.308;-75.096;2024-03-22T05:25:07;-8.70;91.50
15107;DHT22;7654;45.308;-75.096;2024-03-22T05:27:35;-8.80;91.40
15107;DHT22;7654;45.308;-75.096;2024-03-22T05:30:05;-8.80;91.80
15107;DHT22;7654;45.308;-75.096;2024-03-22T05:32:34;-8.80;91.80
15107;DHT22;7654;45.308;-75.096;2024-03-22T05:35:03;-8.80;91.70
15107;DHT22;7654;45.308;-75.096;2024-03-22T05:37:31;-8.80;91.70
15107;DHT22;7654;45.308;-75.096;2024-03-22T05:40:00;-8.90;91.40
15107;DHT22;7654;45.308;-75.096;2024-03-22T05:42:28;-8.90;91.60
15107;DHT22;7654;45.308;-75.096;2024-03-22T05:44:57;-8.90;92.00
15107;DHT22;7654;45.308;-75.096;2024-03-22T05:47:24;-9.00;92.40
15107;DHT22;7654;45.308;-75.096;2024-03-22T05:49:55;-9.10;92.60
15107;DHT22;7654;45.308;-75.096;2024-03-22T05:52:23;-9.00;92.30
15107;DHT22;7654;45.308;-75.096;2024-03-22T05:54:52;-9.00;92.30
15107;DHT22;7654;45.308;-75.096;2024-03-22T05:57:20;-9.00;92.80
15107;DHT22;7654;45.308;-75.096;2024-03-22T05:59:48;-9.10;92.90
15107;DHT22;7654;45.308;-75.096;2024-03-22T06:02:16;-9.10;93.00
15107;DHT22;7654;45.308;-75.096;2024-03-22T06:04:45;-9.10;93.50
15107;DHT22;7654;45.308;-75.096;2024-03-22T06:07:14;-9.20;93.80
15107;DHT22;7654;45.308;-75.096;2024-03-22T06:09:44;-9.20;94.00
15107;DHT22;7654;45.308;-75.096;2024-03-22T06:12:15;-9.30;94.00
15107;DHT22;7654;45.308;-75.096;2024-03-22T06:14:45;-9.30;94.20
15107;DHT22;7654;45.308;-75.096;2024-03-22T06:17:13;-9.30;94.50
15107;DHT22;7654;45.308;-75.096;2024-03-22T06:19:42;-9.40;94.80
15107;DHT22;7654;45.308;-75.096;2024-03-22T06:22:10;-9.40;94.80
15107;DHT22;7654;45.308;-75.096;2024-03-22T06:24:40;-9.40;94.40
15107;DHT22;7654;45.308;-75.096;2024-03-22T06:27:08;-9.40;94.80
15107;DHT22;7654;45.308;-75.096;2024-03-22T06:29:37;-9.50;94.70
15107;DHT22;7654;45.308;-75.096;2024-03-22T06:32:06;-9.50;94.60
15107;DHT22;7654;45.308;-75.096;2024-03-22T06:34:35;-9.60;94.70
15107;DHT22;7654;45.308;-75.096;2024-03-22T06:37:03;-9.60;94.80
15107;DHT22;7654;45.308;-75.096;2024-03-22T06:39:32;-9.70;94.90
15107;DHT22;7654;45.308;-75.096;2024-03-22T06:42:02;-9.70;95.20
15107;DHT22;7654;45.308;-75.096;2024-03-22T06:44:31;-9.80;95.20
15107;DHT22;7654;45.308;-75.096;2024-03-22T06:46:59;-9.90;95.50
15107;DHT22;7654;45.308;-75.096;2024-03-22T06:49:27;-10.10;95.70
15107;DHT22;7654;45.308;-75.096;2024-03-22T06:51:55;-10.30;96.20
15107;DHT22;7654;45.308;-75.096;2024-03-22T06:54:24;-10.40;96.60
15107;DHT22;7654;45.308;-75.096;2024-03-22T06:56:53;-10.50;96.70
15107;DHT22;7654;45.308;-75.096;2024-03-22T06:59:23;-10.60;97.40
15107;DHT22;7654;45.308;-75.096;2024-03-22T07:01:51;-10.60;98.00
15107;DHT22;7654;45.308;-75.096;2024-03-22T07:04:20;-10.70;98.20
15107;DHT22;7654;45.308;-75.096;2024-03-22T07:06:48;-10.70;98.70
15107;DHT22;7654;45.308;-75.096;2024-03-22T07:09:17;-10.80;98.60
15107;DHT22;7654;45.308;-75.096;2024-03-22T07:11:45;-10.80;99.10
15107;DHT22;7654;45.308;-75.096;2024-03-22T07:14:14;-10.90;99.50
15107;DHT22;7654;45.308;-75.096;2024-03-22T07:16:43;-11.00;99.50
15107;DHT22;7654;45.308;-75.096;2024-03-22T07:19:12;-11.00;99.90
15107;DHT22;7654;45.308;-75.096;2024-03-22T07:21:40;-11.00;99.90
15107;DHT22;7654;45.308;-75.096;2024-03-22T07:24:08;-10.90;99.90
15107;DHT22;7654;45.308;-75.096;2024-03-22T07:26:36;-10.90;99.90
15107;DHT22;7654;45.308;-75.096;2024-03-22T07:29:05;-10.80;99.90
15107;DHT22;7654;45.308;-75.096;2024-03-22T07:31:33;-10.90;99.90
15107;DHT22;7654;45.308;-75.096;2024-03-22T07:36:53;-11.00;99.90
15107;DHT22;7654;45.308;-75.096;2024-03-22T07:39:21;-10.90;99.90
15107;DHT22;7654;45.308;-75.096;2024-03-22T07:41:50;-10.80;99.90
15107;DHT22;7654;45.308;-75.096;2024-03-22T07:44:18;-10.70;99.90
15107;DHT22;7654;45.308;-75.096;2024-03-22T07:46:47;-10.70;99.90
15107;DHT22;7654;45.308;-75.096;2024-03-22T07:49:15;-10.60;99.90
15107;DHT22;7654;45.308;-75.096;2024-03-22T07:51:43;-10.60;99.90
15107;DHT22;7654;45.308;-75.096;2024-03-22T07:54:14;-10.50;99.90
15107;DHT22;7654;45.308;-75.096;2024-03-22T07:56:41;-10.60;99.90
15107;DHT22;7654;45.308;-75.096;2024-03-22T07:59:10;-10.70;99.90
15107;DHT22;7654;45.308;-75.096;2024-03-22T08:01:38;-10.70;99.90
15107;DHT22;7654;45.308;-75.096;2024-03-22T08:04:06;-10.80;99.90
15107;DHT22;7654;45.308;-75.096;2024-03-22T08:06:34;-10.90;99.90
15107;DHT22;7654;45.308;-75.096;2024-03-22T08:09:03;-10.90;99.90
15107;DHT22;7654;45.308;-75.096;2024-03-22T08:11:33;-10.90;99.90
15107;DHT22;7654;45.308;-75.096;2024-03-22T08:14:01;-11.00;99.90
15107;DHT22;7654;45.308;-75.096;2024-03-22T08:16:30;-11.10;99.90
15107;DHT22;7654;45.308;-75.096;2024-03-22T08:18:58;-11.10;99.90
15107;DHT22;7654;45.308;-75.096;2024-03-22T08:21:26;-11.10;99.90
15107;DHT22;7654;45.308;-75.096;2024-03-22T08:23:55;-11.10;99.90
15107;DHT22;7654;45.308;-75.096;2024-03-22T08:26:23;-11.10;99.90
15107;DHT22;7654;45.308;-75.096;2024-03-22T08:28:53;-11.10;99.90
15107;DHT22;7654;45.308;-75.096;2024-03-22T08:31:21;-11.20;99.90
15107;DHT22;7654;45.308;-75.096;2024-03-22T08:33:52;-11.20;99.90
15107;DHT22;7654;45.308;-75.096;2024-03-22T08:36:20;-11.30;99.90
15107;DHT22;7654;45.308;-75.096;2024-03-22T08:38:48;-11.30;99.90
15107;DHT22;7654;45.308;-75.096;2024-03-22T08:41:16;-11.50;99.90
15107;DHT22;7654;45.308;-75.096;2024-03-22T08:43:45;-11.50;99.90
15107;DHT22;7654;45.308;-75.096;2024-03-22T08:46:14;-11.50;99.90
15107;DHT22;7654;45.308;-75.096;2024-03-22T08:48:43;-11.50;99.90
15107;DHT22;7654;45.308;-75.096;2024-03-22T08:51:10;-11.50;99.90
15107;DHT22;7654;45.308;-75.096;2024-03-22T08:53:39;-11.50;99.90
15107;DHT22;7654;45.308;-75.096;2024-03-22T08:56:06;-11.50;99.90
15107;DHT22;7654;45.308;-75.096;2024-03-22T08:58:35;-11.50;99.90
15107;DHT22;7654;45.308;-75.096;2024-03-22T09:01:04;-11.50;99.90
15107;DHT22;7654;45.308;-75.096;2024-03-22T09:03:35;-11.30;99.90
15107;DHT22;7654;45.308;-75.096;2024-03-22T09:06:03;-11.30;99.90
15107;DHT22;7654;45.308;-75.096;2024-03-22T09:08:32;-11.30;99.90
15107;DHT22;7654;45.308;-75.096;2024-03-22T09:11:00;-11.40;99.90
15107;DHT22;7654;45.308;-75.096;2024-03-22T09:13:30;-11.50;99.90
15107;DHT22;7654;45.308;-75.096;2024-03-22T09:15:58;-11.60;99.90
15107;DHT22;7654;45.308;-75.096;2024-03-22T09:18:27;-11.70;99.90
15107;DHT22;7654;45.308;-75.096;2024-03-22T09:20:56;-11.80;99.90
15107;DHT22;7654;45.308;-75.096;2024-03-22T09:23:25;-11.90;99.90
15107;DHT22;7654;45.308;-75.096;2024-03-22T09:25:52;-11.90;99.90
15107;DHT22;7654;45.308;-75.096;2024-03-22T09:28:21;-12.00;99.90
15107;DHT22;7654;45.308;-75.096;2024-03-22T09:30:49;-12.20;99.90
15107;DHT22;7654;45.308;-75.096;2024-03-22T09:33:18;-12.20;99.90
15107;DHT22;7654;45.308;-75.096;2024-03-22T09:35:46;-12.30;99.90
15107;DHT22;7654;45.308;-75.096;2024-03-22T09:38:17;-12.40;99.90
15107;DHT22;7654;45.308;-75.096;2024-03-22T09:40:46;-12.50;99.90
15107;DHT22;7654;45.308;-75.096;2024-03-22T09:43:16;-12.50;99.90
15107;DHT22;7654;45.308;-75.096;2024-03-22T09:45:45;-12.50;99.90
15107;DHT22;7654;45.308;-75.096;2024-03-22T09:48:15;-12.60;99.90
15107;DHT22;7654;45.308;-75.096;2024-03-22T09:50:45;-12.50;99.90
15107;DHT22;7654;45.308;-75.096;2024-03-22T09:53:17;-12.30;99.90
15107;DHT22;7654;45.308;-75.096;2024-03-22T09:55:46;-12.10;99.90
15107;DHT22;7654;45.308;-75.096;2024-03-22T09:58:15;-11.90;99.90
15107;DHT22;7654;45.308;-75.096;2024-03-22T10:00:44;-11.80;99.90
15107;DHT22;7654;45.308;-75.096;2024-03-22T10:03:12;-11.60;99.90
15107;DHT22;7654;45.308;-75.096;2024-03-22T10:05:40;-11.60;99.90
15107;DHT22;7654;45.308;-75.096;2024-03-22T10:08:09;-11.60;99.90
15107;DHT22;7654;45.308;-75.096;2024-03-22T10:10:38;-11.60;99.90
15107;DHT22;7654;45.308;-75.096;2024-03-22T10:13:07;-11.60;99.90
15107;DHT22;7654;45.308;-75.096;2024-03-22T10:15:35;-11.60;99.90
15107;DHT22;7654;45.308;-75.096;2024-03-22T10:18:04;-11.60;99.90
15107;DHT22;7654;45.308;-75.096;2024-03-22T10:20:32;-11.70;99.90
15107;DHT22;7654;45.308;-75.096;2024-03-22T10:23:01;-11.70;99.90
15107;DHT22;7654;45.308;-75.096;2024-03-22T10:25:29;-11.70;99.90
15107;DHT22;7654;45.308;-75.096;2024-03-22T10:27:59;-11.70;99.90
15107;DHT22;7654;45.308;-75.096;2024-03-22T10:30:28;-11.70;99.90
15107;DHT22;7654;45.308;-75.096;2024-03-22T10:32:58;-11.80;99.90
15107;DHT22;7654;45.308;-75.096;2024-03-22T10:35:26;-11.80;99.90
15107;DHT22;7654;45.308;-75.096;2024-03-22T10:37:55;-11.80;99.90
15107;DHT22;7654;45.308;-75.096;2024-03-22T10:40:22;-11.70;99.90
15107;DHT22;7654;45.308;-75.096;2024-03-22T10:42:51;-11.70;99.90
15107;DHT22;7654;45.308;-75.096;2024-03-22T10:45:20;-11.70;99.90
15107;DHT22;7654;45.308;-75.096;2024-03-22T10:47:55;-11.70;99.90
15107;DHT22;7654;45.308;-75.096;2024-03-22T10:50:23;-11.80;99.90
15107;DHT22;7654;45.308;-75.096;2024-03-22T10:52:54;-11.90;99.90
15107;DHT22;7654;45.308;-75.096;2024-03-22T10:55:26;-11.90;99.90
15107;DHT22;7654;45.308;-75.096;2024-03-22T10:57:57;-12.00;99.90
15107;DHT22;7654;45.308;-75.096;2024-03-22T11:00:30;-12.00;99.90
15107;DHT22;7654;45.308;-75.096;2024-03-22T11:03:00;-12.10;99.90
15107;DHT22;7654;45.308;-75.096;2024-03-22T11:05:29;-12.10;99.90
15107;DHT22;7654;45.308;-75.096;2024-03-22T11:08:00;-12.10;99.90
15107;DHT22;7654;45.308;-75.096;2024-03-22T11:10:29;-12.10;99.90
15107;DHT22;7654;45.308;-75.096;2024-03-22T11:13:01;-12.10;99.90
15107;DHT22;7654;45.308;-75.096;2024-03-22T11:15:31;-12.10;99.90
15107;DHT22;7654;45.308;-75.096;2024-03-22T11:18:00;-12.10;99.90
15107;DHT22;7654;45.308;-75.096;2024-03-22T11:20:28;-12.10;99.90
15107;DHT22;7654;45.308;-75.096;2024-03-22T11:22:58;-12.10;99.90
15107;DHT22;7654;45.308;-75.096;2024-03-22T11:25:25;-12.10;99.90
15107;DHT22;7654;45.308;-75.096;2024-03-22T11:27:54;-12.00;99.90
15107;DHT22;7654;45.308;-75.096;2024-03-22T11:30:24;-12.00;99.90
15107;DHT22;7654;45.308;-75.096;2024-03-22T11:32:55;-11.90;99.90
15107;DHT22;7654;45.308;-75.096;2024-03-22T11:35:22;-11.80;99.90
15107;DHT22;7654;45.308;-75.096;2024-03-22T11:37:51;-11.70;99.90
15107;DHT22;7654;45.308;-75.096;2024-03-22T11:40:19;-11.60;99.90
15107;DHT22;7654;45.308;-75.096;2024-03-22T11:42:50;-11.50;99.90
15107;DHT22;7654;45.308;-75.096;2024-03-22T11:45:19;-11.50;99.90
15107;DHT22;7654;45.308;-75.096;2024-03-22T11:47:49;-11.50;99.90
15107;DHT22;7654;45.308;-75.096;2024-03-22T11:50:19;-11.40;99.90
15107;DHT22;7654;45.308;-75.096;2024-03-22T11:52:47;-11.30;99.90
15107;DHT22;7654;45.308;-75.096;2024-03-22T11:55:17;-11.20;99.90
15107;DHT22;7654;45.308;-75.096;2024-03-22T11:57:48;-11.10;99.90
15107;DHT22;7654;45.308;-75.096;2024-03-22T12:00:19;-11.00;99.90
15107;DHT22;7654;45.308;-75.096;2024-03-22T12:02:46;-10.90;99.90
15107;DHT22;7654;45.308;-75.096;2024-03-22T12:05:20;-10.80;99.90
15107;DHT22;7654;45.308;-75.096;2024-03-22T12:07:48;-10.80;99.90
15107;DHT22;7654;45.308;-75.096;2024-03-22T12:10:16;-10.80;99.90
15107;DHT22;7654;45.308;-75.096;2024-03-22T12:12:44;-10.80;99.90
15107;DHT22;7654;45.308;-75.096;2024-03-22T12:15:13;-10.70;99.90
15107;DHT22;7654;45.308;-75.096;2024-03-22T12:17:41;-10.70;99.90
15107;DHT22;7654;45.308;-75.096;2024-03-22T12:20:10;-10.70;99.90
15107;DHT22;7654;45.308;-75.096;2024-03-22T12:22:40;-10.60;99.90
15107;DHT22;7654;45.308;-75.096;2024-03-22T12:25:09;-10.60;99.90
15107;DHT22;7654;45.308;-75.096;2024-03-22T12:27:38;-10.60;99.90
15107;DHT22;7654;45.308;-75.096;2024-03-22T12:30:08;-10.50;99.70
15107;DHT22;7654;45.308;-75.096;2024-03-22T12:32:35;-10.50;99.90
15107;DHT22;7654;45.308;-75.096;2024-03-22T12:35:05;-10.50;99.70
15107;DHT22;7654;45.308;-75.096;2024-03-22T12:37:33;-10.30;99.30
15107;DHT22;7654;45.308;-75.096;2024-03-22T12:40:05;-10.20;99.20
15107;DHT22;7654;45.308;-75.096;2024-03-22T12:42:35;-10.10;99.40
15107;DHT22;7654;45.308;-75.096;2024-03-22T12:45:04;-9.90;98.30
15107;DHT22;7654;45.308;-75.096;2024-03-22T12:47:32;-9.90;98.30
15107;DHT22;7654;45.308;-75.096;2024-03-22T12:50:00;-9.70;98.00
15107;DHT22;7654;45.308;-75.096;2024-03-22T12:52:28;-9.60;97.90
15107;DHT22;7654;45.308;-75.096;2024-03-22T12:54:57;-9.50;97.80
15107;DHT22;7654;45.308;-75.096;2024-03-22T12:57:26;-9.40;96.40
15107;DHT22;7654;45.308;-75.096;2024-03-22T12:59:55;-9.30;96.40
15107;DHT22;7654;45.308;-75.096;2024-03-22T13:02:22;-9.20;94.30
15107;DHT22;7654;45.308;-75.096;2024-03-22T13:04:52;-9.10;94.80
15107;DHT22;7654;45.308;-75.096;2024-03-22T13:07:21;-9.00;95.20
15107;DHT22;7654;45.308;-75.096;2024-03-22T13:09:50;-8.90;94.30
15107;DHT22;7654;45.308;-75.096;2024-03-22T13:12:18;-8.80;94.00
15107;DHT22;7654;45.308;-75.096;2024-03-22T13:14:48;-8.70;94.60
15107;DHT22;7654;45.308;-75.096;2024-03-22T13:17:18;-8.60;93.80
15107;DHT22;7654;45.308;-75.096;2024-03-22T13:19:47;-8.60;92.80
15107;DHT22;7654;45.308;-75.096;2024-03-22T13:22:16;-8.50;93.40
15107;DHT22;7654;45.308;-75.096;2024-03-22T13:24:45;-8.30;93.90
15107;DHT22;7654;45.308;-75.096;2024-03-22T13:27:13;-8.20;92.70
15107;DHT22;7654;45.308;-75.096;2024-03-22T13:29:42;-8.20;92.50
15107;DHT22;7654;45.308;-75.096;2024-03-22T13:32:12;-8.00;92.50
15107;DHT22;7654;45.308;-75.096;2024-03-22T13:34:41;-7.90;92.30
15107;DHT22;7654;45.308;-75.096;2024-03-22T13:37:09;-7.80;92.70
15107;DHT22;7654;45.308;-75.096;2024-03-22T13:39:38;-7.70;91.90
15107;DHT22;7654;45.308;-75.096;2024-03-22T13:42:24;-7.60;91.60
15107;DHT22;7654;45.308;-75.096;2024-03-22T13:44:53;-7.60;91.10
15107;DHT22;7654;45.308;-75.096;2024-03-22T13:47:23;-7.60;90.40
15107;DHT22;7654;45.308;-75.096;2024-03-22T13:49:52;-7.60;90.80
15107;DHT22;7654;45.308;-75.096;2024-03-22T13:52:19;-7.50;90.00
15107;DHT22;7654;45.308;-75.096;2024-03-22T13:54:49;-7.40;89.60
15107;DHT22;7654;45.308;-75.096;2024-03-22T13:57:17;-7.30;90.00
15107;DHT22;7654;45.308;-75.096;2024-03-22T13:59:50;-7.10;90.00
15107;DHT22;7654;45.308;-75.096;2024-03-22T14:02:18;-7.10;89.40
15107;DHT22;7654;45.308;-75.096;2024-03-22T14:04:49;-6.90;90.00
15107;DHT22;7654;45.308;-75.096;2024-03-22T14:07:17;-6.80;87.40
15107;DHT22;7654;45.308;-75.096;2024-03-22T14:09:46;-6.70;87.90
15107;DHT22;7654;45.308;-75.096;2024-03-22T14:12:14;-6.60;86.10
15107;DHT22;7654;45.308;-75.096;2024-03-22T14:14:43;-6.60;86.90
15107;DHT22;7654;45.308;-75.096;2024-03-22T14:17:12;-6.50;87.00
15107;DHT22;7654;45.308;-75.096;2024-03-22T14:19:40;-6.50;85.30
15107;DHT22;7654;45.308;-75.096;2024-03-22T14:22:10;-6.30;87.30
15107;DHT22;7654;45.308;-75.096;2024-03-22T14:24:38;-6.20;87.10
15107;DHT22;7654;45.308;-75.096;2024-03-22T14:27:07;-5.90;86.90
15107;DHT22;7654;45.308;-75.096;2024-03-22T14:29:35;-5.80;84.40
15107;DHT22;7654;45.308;-75.096;2024-03-22T14:32:04;-5.80;85.40
15107;DHT22;7654;45.308;-75.096;2024-03-22T14:34:34;-5.90;84.50
15107;DHT22;7654;45.308;-75.096;2024-03-22T14:37:04;-5.90;84.70
15107;DHT22;7654;45.308;-75.096;2024-03-22T14:39:33;-5.90;84.10
15107;DHT22;7654;45.308;-75.096;2024-03-22T14:42:02;-5.80;84.60
15107;DHT22;7654;45.308;-75.096;2024-03-22T14:44:30;-5.70;85.70
15107;DHT22;7654;45.308;-75.096;2024-03-22T14:46:59;-5.60;84.10
15107;DHT22;7654;45.308;-75.096;2024-03-22T14:49:26;-5.50;83.00
15107;DHT22;7654;45.308;-75.096;2024-03-22T14:51:56;-5.40;84.70
15107;DHT22;7654;45.308;-75.096;2024-03-22T14:54:25;-5.20;83.60
15107;DHT22;7654;45.308;-75.096;2024-03-22T14:56:55;-5.10;84.10
15107;DHT22;7654;45.308;-75.096;2024-03-22T14:59:27;-5.00;82.40
15107;DHT22;7654;45.308;-75.096;2024-03-22T15:01:55;-5.00;81.60
15107;DHT22;7654;45.308;-75.096;2024-03-22T15:04:23;-5.10;80.30
15107;DHT22;7654;45.308;-75.096;2024-03-22T15:06:52;-5.00;81.90
15107;DHT22;7654;45.308;-75.096;2024-03-22T15:09:21;-4.70;84.40
15107;DHT22;7654;45.308;-75.096;2024-03-22T15:11:50;-4.60;83.80
15107;DHT22;7654;45.308;-75.096;2024-03-22T15:14:19;-4.60;82.40
15107;DHT22;7654;45.308;-75.096;2024-03-22T15:16:48;-4.50;81.90
15107;DHT22;7654;45.308;-75.096;2024-03-22T15:19:17;-4.40;82.00
15107;DHT22;7654;45.308;-75.096;2024-03-22T15:21:46;-4.50;81.00
15107;DHT22;7654;45.308;-75.096;2024-03-22T15:24:15;-4.40;80.60